createdAt,value
2019-01-18T00:00:43.605Z,95306.72
2019-01-18T00:03:14.815Z,95311.17
2019-01-18T00:05:45.938Z,95309.29
2019-01-18T00:08:17.084Z,95311.14
2019-01-18T00:10:48.291Z,95316.77
2019-01-18T00:13:19.446Z,95321.78
2019-01-18T00:15:50.617Z,95318.03
2019-01-18T00:18:21.865Z,95315.24
2019-01-18T00:20:52.956Z,95320.69
2019-01-18T00:23:23.965Z,95318.94
2019-01-18T00:25:55.135Z,95320.45
2019-01-18T00:28:26.313Z,95320.45
2019-01-18T00:30:57.451Z,95322.34
2019-01-18T00:33:29.471Z,95327.81
2019-01-18T00:36:00.534Z,95331.91
2019-01-18T00:38:31.598Z,95326.38
2019-01-18T00:41:02.750Z,95334.52
2019-01-18T00:43:33.736Z,95337.16
2019-01-18T00:46:04.921Z,95335.70
2019-01-18T00:48:35.962Z,95351.78
2019-01-18T00:51:07.107Z,95355.43
2019-01-18T00:53:38.162Z,95369.02
2019-01-18T00:56:09.315Z,95362.05
2019-01-18T00:58:40.372Z,95361.18
2019-01-18T01:01:11.754Z,95375.33
2019-01-18T01:03:42.871Z,95366.73
2019-01-18T01:06:14.072Z,95371.27
2019-01-18T01:08:45.219Z,95383.22
2019-01-18T01:11:16.364Z,95389.38
2019-01-18T01:13:47.417Z,95392.98
2019-01-18T01:16:18.580Z,95398.85
2019-01-18T01:18:49.708Z,95402.84
2019-01-18T01:21:20.881Z,95402.03
2019-01-18T01:23:51.971Z,95397.63
2019-01-18T01:26:23.107Z,95394.28
2019-01-18T01:28:54.239Z,95405.72
2019-01-18T01:31:25.326Z,95407.88
2019-01-18T01:33:56.371Z,95412.92
2019-01-18T01:36:27.518Z,95411.91
2019-01-18T01:38:58.640Z,95405.80
2019-01-18T01:41:29.862Z,95410.83
2019-01-18T01:44:01.014Z,95405.34
2019-01-18T01:46:32.151Z,95404.05
2019-01-18T01:49:03.279Z,95398.20
2019-01-18T01:51:34.473Z,95401.12
2019-01-18T01:54:05.685Z,95403.38
2019-01-18T01:56:36.836Z,95415.81
2019-01-18T01:59:07.944Z,95399.91
2019-01-18T02:01:39.025Z,95420.19
2019-01-18T02:04:10.267Z,95414.39
2019-01-18T02:06:41.330Z,95424.03
2019-01-18T02:09:12.447Z,95434.37
2019-01-18T02:11:43.607Z,95439.35
2019-01-18T02:14:14.714Z,95439.56
2019-01-18T02:16:47.832Z,95435.95
2019-01-18T02:19:18.579Z,95439.27
2019-01-18T02:21:49.706Z,95446.15
2019-01-18T02:24:20.770Z,95448.20
2019-01-18T02:26:51.832Z,95454.65
2019-01-18T02:29:22.948Z,95456.53
2019-01-18T02:31:54.119Z,95452.25
2019-01-18T02:34:25.183Z,95458.53
2019-01-18T02:36:56.347Z,95468.78
2019-01-18T02:39:27.358Z,95464.05
2019-01-18T02:41:58.560Z,95468.88
2019-01-18T02:44:29.679Z,95459.65
2019-01-18T02:47:00.750Z,95464.59
2019-01-18T02:49:31.874Z,95469.80
2019-01-18T02:52:03.046Z,95466.98
2019-01-18T02:54:34.021Z,95469.00
2019-01-18T02:57:06.153Z,95474.06
2019-01-18T02:59:37.272Z,95470.48
2019-01-18T03:02:08.429Z,95468.11
2019-01-18T03:04:39.552Z,95467.38
2019-01-18T03:07:11.056Z,95469.13
2019-01-18T03:09:42.170Z,95476.89
2019-01-18T03:12:13.222Z,95476.77
2019-01-18T03:14:44.273Z,95479.75
2019-01-18T03:17:15.491Z,95471.52
2019-01-18T03:19:46.556Z,95472.89
2019-01-18T03:22:17.554Z,95466.95
2019-01-18T03:24:48.644Z,95472.63
2019-01-18T03:27:19.715Z,95479.92
2019-01-18T03:29:50.794Z,95479.28
2019-01-18T03:32:21.880Z,95487.95
2019-01-18T03:34:53.175Z,95492.34
2019-01-18T03:37:24.322Z,95501.72
2019-01-18T03:39:55.363Z,95504.39
2019-01-18T03:42:26.508Z,95506.02
2019-01-18T03:44:57.560Z,95512.06
2019-01-18T03:47:28.912Z,95525.41
2019-01-18T03:50:00.003Z,95531.43
2019-01-18T03:52:31.125Z,95530.16
2019-01-18T03:55:02.256Z,95531.36
2019-01-18T03:57:33.340Z,95535.36
2019-01-18T04:00:05.988Z,95544.21
2019-01-18T04:02:37.057Z,95541.37
2019-01-18T04:05:09.064Z,95544.67
2019-01-18T04:07:40.207Z,95553.15
2019-01-18T04:10:13.518Z,95552.07
2019-01-18T04:12:45.921Z,95552.36
2019-01-18T04:15:18.973Z,95564.31
2019-01-18T04:17:50.131Z,95560.13
2019-01-18T04:20:21.570Z,95556.38
2019-01-18T04:22:52.748Z,95556.17
2019-01-18T04:25:27.986Z,95565.23
2019-01-18T04:28:00.043Z,95573.67
2019-01-18T04:30:33.533Z,95574.22
2019-01-18T04:33:03.815Z,95572.75
2019-01-18T04:35:34.875Z,95582.78
2019-01-18T04:38:06.069Z,95579.78
2019-01-18T04:40:37.067Z,95590.56
2019-01-18T04:43:08.267Z,95583.23
2019-01-18T04:45:42.016Z,95589.55
2019-01-18T04:48:12.255Z,95594.86
2019-01-18T04:50:43.268Z,95602.36
2019-01-18T04:53:14.421Z,95608.58
2019-01-18T04:55:45.554Z,95607.47
2019-01-18T04:58:16.584Z,95615.34
2019-01-18T05:00:47.730Z,95607.02
2019-01-18T05:03:18.811Z,95611.96
2019-01-18T05:05:51.170Z,95621.17
2019-01-18T05:08:22.158Z,95625.39
2019-01-18T05:10:53.130Z,95633.23
2019-01-18T05:13:24.214Z,95637.81
2019-01-18T05:15:55.604Z,95642.19
2019-01-18T05:18:26.755Z,95637.44
2019-01-18T05:20:57.821Z,95651.51
2019-01-18T05:23:28.893Z,95660.19
2019-01-18T05:25:59.898Z,95668.67
2019-01-18T05:28:31.012Z,95674.34
2019-01-18T05:31:02.242Z,95671.43
2019-01-18T05:33:33.313Z,95678.66
2019-01-18T05:36:04.566Z,95684.16
2019-01-18T05:38:35.805Z,95696.98
2019-01-18T05:41:07.031Z,95686.09
2019-01-18T05:43:38.031Z,95697.70
2019-01-18T05:46:09.061Z,95695.59
2019-01-18T05:48:40.073Z,95698.53
2019-01-18T05:51:11.286Z,95704.58
2019-01-18T05:53:42.404Z,95703.38
2019-01-18T05:56:13.516Z,95713.51
2019-01-18T05:58:45.676Z,95719.74
2019-01-18T06:01:17.297Z,95718.00
2019-01-18T06:03:48.459Z,95724.02
2019-01-18T06:06:19.588Z,95723.80
2019-01-18T06:08:50.750Z,95733.80
2019-01-18T06:11:21.728Z,95738.88
2019-01-18T06:13:52.818Z,95745.16
2019-01-18T06:16:23.963Z,95746.81
2019-01-18T06:18:55.130Z,95743.76
2019-01-18T06:21:26.217Z,95751.67
2019-01-18T06:23:57.228Z,95761.70
2019-01-18T06:26:28.829Z,95763.14
2019-01-18T06:29:00.919Z,95768.59
2019-01-18T06:31:32.151Z,95775.17
2019-01-18T06:34:03.562Z,95773.90
2019-01-18T06:36:34.940Z,95782.17
2019-01-18T06:39:07.885Z,95777.92
2019-01-18T06:41:48.873Z,95783.41
2019-01-18T06:44:20.061Z,95784.11
2019-01-18T06:46:51.550Z,95793.48
2019-01-18T06:49:22.736Z,95793.28
2019-01-18T06:51:54.121Z,95804.17
2019-01-18T06:54:25.377Z,95802.90
2019-01-18T06:56:56.524Z,95811.52
2019-01-18T06:59:28.114Z,95812.92
2019-01-18T07:01:59.135Z,95820.36
2019-01-18T07:04:30.221Z,95821.82
2019-01-18T07:07:02.453Z,95827.95
2019-01-18T07:09:33.791Z,95828.42
2019-01-18T07:12:04.941Z,95838.52
2019-01-18T07:14:36.062Z,95841.36
2019-01-18T07:17:07.195Z,95848.06
2019-01-18T07:19:38.819Z,95852.06
2019-01-18T07:22:10.151Z,95858.84
2019-01-18T07:24:41.619Z,95865.64
2019-01-18T07:27:12.780Z,95887.59
2019-01-18T07:29:43.946Z,95880.25
2019-01-18T07:32:15.094Z,95884.83
2019-01-18T07:34:46.088Z,95881.22
2019-01-18T07:37:17.142Z,95883.42
2019-01-18T07:39:48.217Z,95887.94
2019-01-18T07:42:19.428Z,95888.34
2019-01-18T07:44:50.521Z,95891.92
2019-01-18T07:47:21.572Z,95892.37
2019-01-18T07:49:52.872Z,95895.56
2019-01-18T07:52:24.089Z,95900.70
2019-01-18T07:54:55.315Z,95903.27
2019-01-18T07:57:26.362Z,95905.09
2019-01-18T07:59:57.439Z,95904.30
2019-01-18T08:02:28.757Z,95906.19
2019-01-18T08:05:00.521Z,95906.58
2019-01-18T08:07:31.650Z,95901.41
2019-01-18T08:10:02.867Z,95906.65
2019-01-18T08:12:33.969Z,95912.59
2019-01-18T08:15:06.183Z,95913.45
2019-01-18T08:17:37.327Z,95919.42
2019-01-18T08:20:11.522Z,95923.95
2019-01-18T08:22:42.975Z,95930.87
2019-01-18T08:25:14.998Z,95931.96
2019-01-18T08:27:46.285Z,95934.00
2019-01-18T08:30:19.850Z,95936.93
2019-01-18T08:32:50.898Z,95935.53
2019-01-18T08:35:23.002Z,95945.35
2019-01-18T08:37:54.163Z,95948.22
2019-01-18T08:40:28.871Z,95951.41
2019-01-18T08:42:59.922Z,95960.50
2019-01-18T08:45:34.334Z,95963.75
2019-01-18T08:48:06.702Z,95957.67
2019-01-18T08:50:38.164Z,95967.47
2019-01-18T08:53:09.374Z,95962.67
2019-01-18T08:55:40.646Z,95962.83
2019-01-18T08:58:11.751Z,95965.51
2019-01-18T09:00:42.822Z,95979.12
2019-01-18T09:03:13.964Z,95973.70
2019-01-18T09:05:45.066Z,95973.85
2019-01-18T09:08:16.030Z,95969.04
2019-01-18T09:10:47.386Z,95973.23
2019-01-18T09:13:18.540Z,95978.70
2019-01-18T09:15:50.351Z,95979.90
2019-01-18T09:18:21.359Z,95985.53
2019-01-18T09:20:52.512Z,95984.83
2019-01-18T09:23:23.632Z,95990.22
2019-01-18T09:25:54.883Z,95992.73
2019-01-18T09:28:26.058Z,95992.41
2019-01-18T09:30:58.280Z,95998.64
2019-01-18T09:33:29.352Z,96004.73
2019-01-18T09:36:00.549Z,96010.56
2019-01-18T09:38:31.824Z,96010.56
2019-01-18T09:41:02.960Z,96013.10
2019-01-18T09:43:34.089Z,96013.02
2019-01-18T09:46:05.452Z,96017.02
2019-01-18T09:48:36.652Z,96016.34
2019-01-18T09:51:07.967Z,96015.05
2019-01-18T09:53:39.018Z,96015.05
2019-01-18T09:56:10.257Z,96015.57
2019-01-18T09:58:41.339Z,96018.24
2019-01-18T10:01:12.711Z,96013.02
2019-01-18T10:03:43.852Z,96014.51
2019-01-18T10:06:14.990Z,96015.16
2019-01-18T10:08:46.065Z,96014.70
2019-01-18T10:11:18.434Z,96017.44
2019-01-18T10:13:50.630Z,96014.51
2019-01-18T10:16:21.756Z,96017.09
2019-01-18T10:18:52.847Z,96014.06
2019-01-18T10:21:24.144Z,96012.95
2019-01-18T10:23:55.324Z,96006.45
2019-01-18T10:26:26.432Z,96007.69
2019-01-18T10:28:57.491Z,96005.63
2019-01-18T10:31:28.531Z,95999.59
2019-01-18T10:33:59.583Z,95998.22
2019-01-18T10:36:30.783Z,95994.52
2019-01-18T10:39:01.926Z,95994.39
2019-01-18T10:41:34.290Z,95999.03
2019-01-18T10:44:06.168Z,95995.95
2019-01-18T10:46:37.610Z,95997.45
2019-01-18T10:49:08.732Z,95994.13
2019-01-18T10:51:39.981Z,95994.80
2019-01-18T10:54:11.147Z,95995.15
2019-01-18T10:56:42.235Z,96002.47
2019-01-18T10:59:13.325Z,95990.77
2019-01-18T11:01:44.397Z,95994.48
2019-01-18T11:04:15.472Z,96004.48
2019-01-18T11:06:46.536Z,95998.22
2019-01-18T11:09:17.756Z,95998.42
2019-01-18T11:11:48.836Z,95999.61
2019-01-18T11:14:19.955Z,95995.67
2019-01-18T11:16:51.015Z,95998.11
2019-01-18T11:19:22.172Z,95995.45
2019-01-18T11:21:53.222Z,95992.97
2019-01-18T11:24:24.330Z,95990.75
2019-01-18T11:26:55.411Z,95988.57
2019-01-18T11:29:26.540Z,95994.25
2019-01-18T11:31:57.749Z,95991.14
2019-01-18T11:34:28.888Z,95993.73
2019-01-18T11:36:59.998Z,95987.05
2019-01-18T11:39:31.102Z,95982.56
2019-01-18T11:42:05.283Z,95987.05
2019-01-18T11:44:35.185Z,95980.88
2019-01-18T11:47:06.378Z,95976.17
2019-01-18T11:49:37.642Z,95978.59
2019-01-18T11:52:08.790Z,95975.45
2019-01-18T11:54:43.980Z,95974.83
2019-01-18T11:57:12.686Z,95980.20
2019-01-18T11:59:49.034Z,95973.86
2019-01-18T12:02:22.030Z,95978.54
2019-01-18T12:04:50.467Z,95978.09
2019-01-18T12:07:21.483Z,95972.27
2019-01-18T12:09:52.515Z,95966.44
2019-01-18T12:12:23.649Z,95965.91
2019-01-18T12:14:54.723Z,95963.02
2019-01-18T12:17:25.956Z,95962.67
2019-01-18T12:19:57.225Z,95954.47
2019-01-18T12:22:28.373Z,95943.84
2019-01-18T12:24:59.375Z,95937.92
2019-01-18T12:27:30.518Z,95938.08
2019-01-18T12:30:01.829Z,95927.98
2019-01-18T12:32:34.050Z,95903.86
2019-01-18T12:35:05.666Z,95940.44
2019-01-18T12:37:37.127Z,95941.46
2019-01-18T12:40:08.237Z,95941.71
2019-01-18T12:42:39.576Z,95939.70
2019-01-18T12:45:13.840Z,95948.44
2019-01-18T12:47:44.994Z,95948.29
2019-01-18T12:50:39.266Z,95945.58
2019-01-18T12:53:11.357Z,95945.61
2019-01-18T12:55:42.502Z,95938.86
2019-01-18T12:58:13.513Z,95942.77
2019-01-18T13:00:44.725Z,95947.02
2019-01-18T13:03:15.831Z,95943.55
2019-01-18T13:05:52.057Z,95937.75
2019-01-18T13:08:23.145Z,95934.79
2019-01-18T13:10:54.294Z,95913.70
2019-01-18T13:13:25.570Z,95914.91
2019-01-18T13:16:38.170Z,95905.42
2019-01-18T13:19:14.814Z,95914.33
2019-01-18T13:21:45.881Z,95920.31
2019-01-18T13:24:17.178Z,95921.98
2019-01-18T13:26:48.327Z,95921.30
2019-01-18T13:29:19.523Z,95934.19
2019-01-18T13:31:50.673Z,95933.85
2019-01-18T13:34:21.823Z,95932.81
2019-01-18T13:36:53.067Z,95931.08
2019-01-18T13:39:24.120Z,95935.98
2019-01-18T13:41:55.335Z,95939.97
2019-01-18T13:44:26.413Z,95942.88
2019-01-18T13:46:57.515Z,95936.53
2019-01-18T13:49:28.661Z,95940.42
2019-01-18T13:51:59.764Z,95933.84
2019-01-18T13:54:30.907Z,95942.34
2019-01-18T13:57:02.062Z,95939.80
2019-01-18T13:59:33.237Z,95941.95
2019-01-18T14:02:04.438Z,95939.41
2019-01-18T14:04:35.566Z,95933.98
2019-01-18T14:07:06.784Z,95937.41
2019-01-18T14:09:37.925Z,95945.28
2019-01-18T14:12:08.977Z,95945.53
2019-01-18T14:14:40.418Z,95950.39
2019-01-18T14:17:11.577Z,95942.72
2019-01-18T14:19:42.554Z,95953.88
2019-01-18T14:22:13.634Z,95957.38
2019-01-18T14:24:44.762Z,95957.84
2019-01-18T14:27:16.873Z,95959.81
2019-01-18T14:29:48.024Z,95962.62
2019-01-18T14:32:19.221Z,95961.79
2019-01-18T14:34:50.271Z,95962.44
2019-01-18T14:37:21.419Z,95959.63
2019-01-18T14:39:52.416Z,95961.11
2019-01-18T14:42:23.557Z,95951.68
2019-01-18T14:44:54.698Z,95942.11
2019-01-18T14:47:25.714Z,95950.34
2019-01-18T14:49:56.807Z,95949.24
2019-01-18T14:52:27.954Z,95945.83
2019-01-18T14:54:59.027Z,95964.81
2019-01-18T14:57:30.122Z,95957.22
2019-01-18T15:00:01.180Z,95960.81
2019-01-18T15:02:32.230Z,95959.88
2019-01-18T15:05:03.390Z,95968.45
2019-01-18T15:07:34.508Z,95966.83
2019-01-18T15:10:07.300Z,95962.90
2019-01-18T15:12:38.411Z,95962.55
2019-01-18T15:15:11.844Z,95971.11
2019-01-18T15:17:43.090Z,95978.16
2019-01-18T15:20:25.817Z,95973.86
2019-01-18T15:22:56.958Z,95974.30
2019-01-18T15:25:28.082Z,95974.98
2019-01-18T15:28:00.991Z,95987.09
2019-01-18T15:30:32.634Z,95982.59
2019-01-18T15:33:09.063Z,95978.52
2019-01-18T15:35:38.696Z,95984.14
2019-01-18T15:38:11.186Z,95981.23
2019-01-18T15:40:45.727Z,95973.83
2019-01-18T15:43:22.692Z,95972.36
2019-01-18T15:45:53.845Z,95967.13
2019-01-18T15:48:24.889Z,95974.72
2019-01-18T15:50:56.099Z,95975.36
2019-01-18T15:53:27.303Z,95972.81
2019-01-18T15:55:59.572Z,95973.78
2019-01-18T15:58:30.649Z,95972.38
2019-01-18T16:01:01.775Z,95966.48
2019-01-18T16:03:32.814Z,95969.73
2019-01-18T16:06:04.258Z,95972.17
2019-01-18T16:08:35.395Z,95969.35
2019-01-18T16:11:06.467Z,95968.41
2019-01-18T16:13:37.443Z,95975.13
2019-01-18T16:16:33.688Z,95971.88
2019-01-18T16:19:04.941Z,95969.75
2019-01-18T16:21:36.074Z,95974.69
2019-01-18T16:24:07.186Z,95976.25
2019-01-18T16:26:38.322Z,95976.48
2019-01-18T16:29:09.629Z,95977.88
2019-01-18T16:31:40.687Z,95981.64
2019-01-18T16:34:11.770Z,95977.95
2019-01-18T16:36:43.927Z,95968.11
2019-01-18T16:39:15.081Z,95976.56
2019-01-18T16:41:46.222Z,95972.77
2019-01-18T16:44:17.367Z,95965.48
2019-01-18T16:46:48.818Z,95969.22
2019-01-18T16:49:19.915Z,95974.33
2019-01-18T16:51:50.995Z,95976.10
2019-01-18T16:54:23.323Z,95971.47
2019-01-18T16:56:54.599Z,95970.36
2019-01-18T16:59:25.694Z,95969.66
2019-01-18T17:01:56.774Z,95963.97
2019-01-18T17:04:27.858Z,95969.09
2019-01-18T17:06:58.983Z,95964.30
2019-01-18T17:09:30.103Z,95962.08
2019-01-18T17:12:01.094Z,95967.68
2019-01-18T17:14:32.167Z,95965.84
2019-01-18T17:17:03.314Z,95963.81
2019-01-18T17:19:34.380Z,95966.16
2019-01-18T17:22:05.543Z,95968.78
2019-01-18T17:24:36.606Z,95974.55
2019-01-18T17:27:07.694Z,95965.73
2019-01-18T17:29:38.756Z,95964.38
2019-01-18T17:32:09.936Z,95963.45
2019-01-18T17:34:41.092Z,95973.45
2019-01-18T17:37:22.743Z,95972.27
2019-01-18T17:40:44.088Z,95971.09
2019-01-18T17:43:43.510Z,95973.27
2019-01-18T17:46:42.341Z,95976.28
2019-01-18T17:49:39.317Z,95976.71
2019-01-18T17:52:50.579Z,95973.77
2019-01-18T17:55:55.600Z,95972.27
2019-01-18T17:59:04.767Z,95972.09
2019-01-18T18:02:01.642Z,95969.00
2019-01-18T18:05:03.174Z,95970.31
2019-01-18T18:08:30.332Z,95972.35
2019-01-18T18:11:58.039Z,95972.23
2019-01-18T18:14:45.152Z,95972.48
2019-01-18T18:17:49.960Z,95964.13
2019-01-18T18:20:54.185Z,95963.75
2019-01-18T18:24:10.250Z,95961.97
2019-01-18T18:27:11.303Z,95969.37
2019-01-18T18:30:18.697Z,95964.94
2019-01-18T18:33:30.751Z,95966.23
2019-01-18T18:36:16.423Z,95964.80
2019-01-18T18:39:13.863Z,95971.66
2019-01-18T18:42:08.029Z,95972.88
2019-01-18T18:45:04.687Z,95968.43
2019-01-18T18:48:23.077Z,95964.50
2019-01-18T18:51:21.491Z,95951.04
2019-01-18T18:54:33.491Z,95960.36
2019-01-18T18:58:06.943Z,95965.36
2019-01-18T19:00:51.559Z,95966.66
2019-01-18T19:03:36.235Z,95963.89
2019-01-18T19:06:31.251Z,95966.00
2019-01-18T19:09:21.247Z,95962.70
2019-01-18T19:12:34.038Z,95968.59
2019-01-18T19:15:36.844Z,95959.20
2019-01-18T19:18:45.459Z,95964.52
2019-01-18T19:22:08.806Z,95963.91
2019-01-18T19:25:17.122Z,95959.73
2019-01-18T19:28:28.842Z,95954.89
2019-01-18T19:31:53.482Z,95950.61
2019-01-18T19:35:05.964Z,95960.85
2019-01-18T19:38:17.298Z,95957.09
2019-01-18T19:41:01.376Z,95950.83
2019-01-18T19:44:05.380Z,95956.56
2019-01-18T19:47:03.665Z,95954.77
2019-01-18T19:50:21.581Z,95955.25
2019-01-18T19:53:43.569Z,95953.89
2019-01-18T19:56:47.019Z,95957.55
2019-01-18T19:59:58.222Z,95966.26
2019-01-18T20:02:57.706Z,95962.70
2019-01-18T20:06:03.190Z,95958.05
2019-01-18T20:08:56.223Z,95952.55
2019-01-18T20:12:07.423Z,95946.63
2019-01-18T20:15:16.766Z,95951.05
2019-01-18T20:18:30.611Z,95949.15
2019-01-18T20:21:45.438Z,95942.89
2019-01-18T20:25:05.625Z,95945.06
2019-01-18T20:27:53.669Z,95938.05
2019-01-18T20:31:07.871Z,95939.01
2019-01-18T20:34:18.481Z,95940.05
2019-01-18T20:37:18.637Z,95940.17
2019-01-18T20:40:33.680Z,95934.98
2019-01-18T20:43:38.330Z,95925.94
2019-01-18T20:46:50.597Z,95924.89
2019-01-18T20:49:46.622Z,95926.89
2019-01-18T20:52:40.953Z,95932.27
2019-01-18T20:55:20.611Z,95932.91
2019-01-18T20:58:30.581Z,95927.77
2019-01-18T21:02:01.191Z,95924.68
2019-01-18T21:05:16.378Z,95920.66
2019-01-18T21:08:26.971Z,95927.09
2019-01-18T21:11:35.138Z,95929.20
2019-01-18T21:14:40.113Z,95928.03
2019-01-18T21:17:43.566Z,95925.94
2019-01-18T21:20:56.032Z,95923.56
2019-01-18T21:23:48.345Z,95925.63
2019-01-18T21:26:55.883Z,95918.88
2019-01-18T21:30:26.205Z,95921.67
2019-01-18T21:33:37.991Z,95917.80
2019-01-18T21:36:53.275Z,95915.87
2019-01-18T21:40:06.141Z,95918.13
2019-01-18T21:43:10.673Z,95927.42
2019-01-18T21:46:28.868Z,95917.95
2019-01-18T21:49:19.012Z,95928.24
2019-01-18T21:52:30.231Z,95923.94
2019-01-18T21:55:13.026Z,95917.38
2019-01-18T21:57:58.447Z,95916.86
2019-01-18T22:00:55.198Z,95910.24
2019-01-18T22:03:39.794Z,95916.41
2019-01-18T22:06:50.269Z,95915.97
2019-01-18T22:09:53.580Z,95914.08
2019-01-18T22:13:21.142Z,95906.81
2019-01-18T22:16:28.553Z,95905.91
2019-01-18T22:19:55.057Z,95903.15
2019-01-18T22:22:54.093Z,95900.53
2019-01-18T22:25:58.901Z,95895.94
2019-01-18T22:29:16.950Z,95898.39
2019-01-18T22:32:01.442Z,95899.27
2019-01-18T22:34:47.577Z,95899.60
2019-01-18T22:37:24.647Z,95899.23
2019-01-18T22:40:19.275Z,95894.20
2019-01-18T22:43:01.809Z,95903.13
2019-01-18T22:46:26.069Z,95884.04
2019-01-18T22:49:34.364Z,95888.83
2019-01-18T22:52:31.654Z,95883.80
2019-01-18T22:55:44.583Z,95880.34
2019-01-18T22:58:38.523Z,95872.82
2019-01-18T23:01:38.037Z,95876.73
2019-01-18T23:04:39.722Z,95866.20
2019-01-18T23:07:54.494Z,95867.33
2019-01-18T23:10:52.630Z,95863.59
2019-01-18T23:13:57.272Z,95850.09
2019-01-18T23:17:40.048Z,95848.09
2019-01-18T23:20:49.933Z,95844.80
2019-01-18T23:23:28.049Z,95843.52
2019-01-18T23:26:26.018Z,95835.70
2019-01-18T23:29:19.692Z,95836.66
2019-01-18T23:32:23.033Z,95834.36
2019-01-18T23:35:06.210Z,95825.56
2019-01-18T23:38:12.346Z,95827.17
2019-01-18T23:41:14.383Z,95824.20
2019-01-18T23:44:08.651Z,95819.29
2019-01-18T23:47:26.977Z,95817.37
2019-01-18T23:50:36.586Z,95819.47
2019-01-18T23:53:15.705Z,95817.37
2019-01-18T23:56:31.150Z,95810.09
2019-01-18T23:59:14.614Z,95809.16
